Time;durP1;ratioP1;P1;durP2;ratioP2;P2;SDS_P1;SDS_P2;PMS_P1;PMS_P2;Temp;Humidity;BMP_temperature;BMP_pressure;BME280_temperature;BME280_humidity;BME280_pressure;Samples;Min_cycle;Max_cycle;Signal;HPM_P1;HPM_P2
2024/01/05 00:01:25;;;;;;;10.13;3.80;;;;;;;;;;4904846;29;20469;-79
2024/01/05 00:03:51;;;;;;;5.18;2.83;;;;;;;;;;4930958;29;20065;-78
2024/01/05 00:06:17;;;;;;;6.97;3.45;;;;;;;;;;4941856;29;20086;-79
2024/01/05 00:08:42;;;;;;;6.47;2.60;;;;;;;;;;4924783;29;20039;-79
2024/01/05 00:11:08;;;;;;;9.50;3.50;;;;;;;;;;4925948;29;20666;-79
2024/01/05 00:13:34;;;;;;;6.70;3.60;;;;;;;;;;4957022;29;20031;-79
2024/01/05 00:15:59;;;;;;;7.53;3.13;;;;;;;;;;4942362;29;20491;-80
2024/01/05 00:18:27;;;;;;;6.75;3.72;;;;;;;;;;4928702;29;20039;-77
2024/01/05 00:20:54;;;;;;;5.82;2.97;;;;;;;;;;4926587;29;20122;-79
2024/01/05 00:23:19;;;;;;;5.63;3.00;;;;;;;;;;4928193;29;20071;-79
2024/01/05 00:25:47;;;;;;;6.72;3.22;;;;;;;;;;4944111;29;20042;-79
2024/01/05 00:28:12;;;;;;;6.03;2.78;;;;;;;;;;4912853;29;20122;-79
2024/01/05 00:30:38;;;;;;;6.63;3.00;;;;;;;;;;4944033;29;20133;-79
2024/01/05 00:33:04;;;;;;;8.43;3.85;;;;;;;;;;4930713;29;20045;-78
2024/01/05 00:35:29;;;;;;;6.18;3.20;;;;;;;;;;4947501;29;20079;-78
2024/01/05 00:37:55;;;;;;;8.68;3.72;;;;;;;;;;4942567;29;20043;-79
2024/01/05 00:40:21;;;;;;;7.85;3.78;;;;;;;;;;4896931;29;20063;-79
2024/01/05 00:42:46;;;;;;;7.50;3.88;;;;;;;;;;4898146;29;20517;-78
2024/01/05 00:45:13;;;;;;;7.32;3.30;;;;;;;;;;4928264;29;20034;-78
2024/01/05 00:47:46;;;;;;;7.20;3.42;;;;;;;;;;4929667;29;20032;-79
2024/01/05 00:50:11;;;;;;;6.22;3.00;;;;;;;;;;4898902;29;20047;-80
2024/01/05 00:52:37;;;;;;;6.35;3.10;;;;;;;;;;4898345;29;20479;-77
2024/01/05 00:55:03;;;;;;;6.90;3.50;;;;;;;;;;4903855;29;20039;-78
2024/01/05 00:57:29;;;;;;;8.38;4.22;;;;;;;;;;4930706;29;20042;-79
2024/01/05 00:59:55;;;;;;;8.90;4.38;;;;;;;;;;4943319;29;20039;-77
2024/01/05 01:02:20;;;;;;;6.32;3.92;;;;;;;;;;4927033;29;20035;-77
2024/01/05 01:04:46;;;;;;;7.85;3.80;;;;;;;;;;4925714;29;20047;-79
2024/01/05 01:07:11;;;;;;;13.45;4.22;;;;;;;;;;4942201;29;20057;-79
2024/01/05 01:09:37;;;;;;;7.35;3.42;;;;;;;;;;4959246;29;20081;-79
2024/01/05 01:12:03;;;;;;;6.55;3.65;;;;;;;;;;4925190;29;20126;-79
2024/01/05 01:14:28;;;;;;;9.60;4.45;;;;;;;;;;4913227;29;20407;-78
2024/01/05 01:16:54;;;;;;;8.20;3.45;;;;;;;;;;4926799;29;20057;-79
2024/01/05 01:19:20;;;;;;;7.25;3.70;;;;;;;;;;4939648;29;20129;-78
2024/01/05 01:21:45;;;;;;;7.78;4.35;;;;;;;;;;4950722;29;20042;-78
2024/01/05 01:24:11;;;;;;;9.23;3.88;;;;;;;;;;4942372;29;20047;-77
2024/01/05 01:26:38;;;;;;;6.40;3.63;;;;;;;;;;4941102;29;20070;-79
2024/01/05 01:29:06;;;;;;;10.93;4.00;;;;;;;;;;4938299;29;20028;-78
2024/01/05 01:31:32;;;;;;;9.07;4.35;;;;;;;;;;4923272;29;20031;-78
2024/01/05 01:33:57;;;;;;;8.68;3.90;;;;;;;;;;4923322;29;20039;-77
2024/01/05 01:36:23;;;;;;;6.45;3.42;;;;;;;;;;4923492;29;20126;-78
2024/01/05 01:38:49;;;;;;;8.82;3.90;;;;;;;;;;4923514;29;20043;-79
2024/01/05 01:41:14;;;;;;;7.47;4.00;;;;;;;;;;4923730;29;20047;-79
2024/01/05 01:43:44;;;;;;;7.60;3.55;;;;;;;;;;4924562;29;20066;-78
2024/01/05 01:46:10;;;;;;;9.75;3.83;;;;;;;;;;4911957;29;20027;-77
2024/01/05 01:48:37;;;;;;;7.03;3.50;;;;;;;;;;4925517;29;20091;-78
2024/01/05 01:51:03;;;;;;;7.68;3.80;;;;;;;;;;4910647;29;20036;-79
2024/01/05 01:53:28;;;;;;;8.05;3.78;;;;;;;;;;4908331;29;20169;-79
2024/01/05 01:55:54;;;;;;;7.10;3.50;;;;;;;;;;4909396;29;20036;-79
2024/01/05 01:58:21;;;;;;;10.52;4.28;;;;;;;;;;4909481;29;20044;-78
2024/01/05 02:00:47;;;;;;;6.38;3.78;;;;;;;;;;4929013;29;20043;-78
2024/01/05 02:03:16;;;;;;;11.05;4.05;;;;;;;;;;4945848;29;20043;-79
2024/01/05 02:05:43;;;;;;;8.82;4.03;;;;;;;;;;4913772;29;20082;-78
2024/01/05 02:08:09;;;;;;;8.57;4.20;;;;;;;;;;4945285;29;20038;-79
2024/01/05 02:10:34;;;;;;;9.40;3.88;;;;;;;;;;4914500;29;20027;-78
2024/01/05 02:13:00;;;;;;;9.38;4.13;;;;;;;;;;4947822;29;20442;-78
2024/01/05 02:15:26;;;;;;;7.55;3.78;;;;;;;;;;4916442;29;20039;-79
2024/01/05 02:18:12;;;;;;;9.80;4.47;;;;;;;;;;4949036;29;20035;-78
2024/01/05 02:20:38;;;;;;;7.80;3.45;;;;;;;;;;4930749;29;20059;-79
2024/01/05 02:23:04;;;;;;;10.65;4.57;;;;;;;;;;4945846;29;20043;-78
2024/01/05 02:25:30;;;;;;;8.25;4.00;;;;;;;;;;4916442;29;20047;-78
2024/01/05 02:27:55;;;;;;;7.40;3.75;;;;;;;;;;4962986;29;20035;-79
2024/01/05 02:30:21;;;;;;;9.70;4.40;;;;;;;;;;4946450;29;20031;-78
2024/01/05 02:32:47;;;;;;;8.77;4.65;;;;;;;;;;4943860;29;20035;-79
2024/01/05 02:35:12;;;;;;;6.47;3.35;;;;;;;;;;4901835;29;20368;-78
2024/01/05 02:37:40;;;;;;;7.68;3.97;;;;;;;;;;4907825;29;20039;-80
2024/01/05 02:40:06;;;;;;;9.27;4.28;;;;;;;;;;4890518;29;20127;-79
2024/01/05 02:42:32;;;;;;;9.70;3.97;;;;;;;;;;4922373;29;20032;-78
2024/01/05 02:44:58;;;;;;;9.70;4.15;;;;;;;;;;4906130;29;20058;-78
2024/01/05 02:47:24;;;;;;;6.82;3.72;;;;;;;;;;4906283;29;20074;-78
2024/01/05 02:49:52;;;;;;;6.95;4.03;;;;;;;;;;4908658;29;20039;-77
2024/01/05 02:52:17;;;;;;;10.00;4.78;;;;;;;;;;4920482;29;20028;-78
2024/01/05 02:54:44;;;;;;;8.55;4.43;;;;;;;;;;4904805;29;20119;-77
2024/01/05 02:57:10;;;;;;;11.60;4.85;;;;;;;;;;4905049;29;20039;-77
2024/01/05 02:59:36;;;;;;;8.82;4.72;;;;;;;;;;4906708;29;20118;-78
2024/01/05 03:02:02;;;;;;;9.35;4.78;;;;;;;;;;4909088;29;20035;-78
2024/01/05 03:04:27;;;;;;;9.13;4.57;;;;;;;;;;4906228;29;20093;-79
2024/01/05 03:06:53;;;;;;;9.52;4.63;;;;;;;;;;4905868;29;20483;-78
2024/01/05 03:09:19;;;;;;;10.10;4.55;;;;;;;;;;4919692;29;20042;-79
2024/01/05 03:11:44;;;;;;;9.32;4.40;;;;;;;;;;4923825;29;20035;-80
2024/01/05 03:14:10;;;;;;;9.25;4.60;;;;;;;;;;4923187;29;20398;-79
2024/01/05 03:16:36;;;;;;;10.07;4.85;;;;;;;;;;4923715;29;20027;-78
2024/01/05 03:19:02;;;;;;;10.27;4.93;;;;;;;;;;4923685;29;20182;-79
2024/01/05 03:21:27;;;;;;;7.25;4.43;;;;;;;;;;4939791;29;20399;-79
2024/01/05 03:23:53;;;;;;;13.60;7.05;;;;;;;;;;4923560;29;20031;-77
2024/01/05 03:26:19;;;;;;;10.35;5.00;;;;;;;;;;4903607;29;20034;-78
2024/01/05 03:28:44;;;;;;;13.13;5.30;;;;;;;;;;4939627;29;20040;-77
2024/01/05 03:31:11;;;;;;;8.30;4.95;;;;;;;;;;4923844;29;20042;-78
2024/01/05 03:33:38;;;;;;;11.52;4.85;;;;;;;;;;4890247;29;20036;-77
2024/01/05 03:36:06;;;;;;;9.93;4.85;;;;;;;;;;4894845;29;20135;-77
2024/01/05 03:38:31;;;;;;;8.90;4.80;;;;;;;;;;4905441;29;20066;-78
2024/01/05 03:40:57;;;;;;;8.45;4.45;;;;;;;;;;4905938;29;20039;-79
2024/01/05 03:43:24;;;;;;;8.75;4.25;;;;;;;;;;4906371;29;20114;-78
2024/01/05 03:45:49;;;;;;;13.15;6.68;;;;;;;;;;4904766;29;20484;-79
2024/01/05 03:48:16;;;;;;;9.82;5.65;;;;;;;;;;4919938;29;20391;-78
2024/01/05 03:50:42;;;;;;;8.45;5.32;;;;;;;;;;4908258;29;20369;-77
2024/01/05 03:53:08;;;;;;;10.23;5.38;;;;;;;;;;4913067;29;20089;-77
2024/01/05 03:55:36;;;;;;;9.27;5.75;;;;;;;;;;4910947;29;20043;-79
2024/01/05 03:58:02;;;;;;;13.23;5.88;;;;;;;;;;4941810;29;20098;-77
2024/01/05 04:00:28;;;;;;;13.45;6.07;;;;;;;;;;4926031;29;20057;-79
2024/01/05 04:02:53;;;;;;;12.68;5.85;;;;;;;;;;4910188;29;20126;-79
2024/01/05 04:05:19;;;;;;;9.00;4.93;;;;;;;;;;4925125;29;20063;-78
2024/01/05 04:07:45;;;;;;;13.60;5.88;;;;;;;;;;4927012;29;20118;-79
2024/01/05 04:10:11;;;;;;;16.00;7.85;;;;;;;;;;4925912;29;20114;-78
2024/01/05 04:12:36;;;;;;;9.00;5.75;;;;;;;;;;4920261;29;20043;-78
2024/01/05 04:15:02;;;;;;;10.55;5.38;;;;;;;;;;4925588;29;20039;-77
2024/01/05 04:17:30;;;;;;;10.90;5.03;;;;;;;;;;4928536;29;20085;-78
2024/01/05 04:19:56;;;;;;;11.90;5.65;;;;;;;;;;4928985;29;20487;-77
2024/01/05 04:22:27;;;;;;;11.70;5.00;;;;;;;;;;4944708;29;20066;-78
2024/01/05 04:24:53;;;;;;;9.70;5.47;;;;;;;;;;4929456;29;20031;-79
2024/01/05 04:27:19;;;;;;;9.15;5.45;;;;;;;;;;4929103;29;20042;-78
2024/01/05 04:29:44;;;;;;;10.48;4.90;;;;;;;;;;4928932;29;20027;-78
2024/01/05 04:32:12;;;;;;;8.77;5.10;;;;;;;;;;4939957;28;20035;-77
2024/01/05 04:34:41;;;;;;;14.82;5.93;;;;;;;;;;4929136;28;20031;-78
2024/01/05 04:37:09;;;;;;;13.45;5.50;;;;;;;;;;4929432;28;20426;-78
2024/01/05 04:39:34;;;;;;;11.63;5.53;;;;;;;;;;4928772;29;20039;-78
2024/01/05 04:42:00;;;;;;;10.00;5.60;;;;;;;;;;4944307;29;20039;-78
2024/01/05 04:44:26;;;;;;;14.15;6.50;;;;;;;;;;4925014;29;20067;-79
2024/01/05 04:46:54;;;;;;;10.40;5.60;;;;;;;;;;4925896;29;20035;-79
2024/01/05 04:49:20;;;;;;;11.77;5.63;;;;;;;;;;4927068;29;20118;-78
2024/01/05 04:51:46;;;;;;;10.55;5.40;;;;;;;;;;4925675;29;20031;-78
2024/01/05 04:54:12;;;;;;;9.02;5.05;;;;;;;;;;4933260;29;20046;-78
2024/01/05 04:56:37;;;;;;;12.32;4.97;;;;;;;;;;4944273;29;20035;-77
2024/01/05 04:59:03;;;;;;;10.63;5.82;;;;;;;;;;4961877;28;20035;-77
2024/01/05 05:01:28;;;;;;;12.20;5.80;;;;;;;;;;4940416;29;20036;-78
2024/01/05 05:03:54;;;;;;;9.15;5.03;;;;;;;;;;4940153;29;20535;-77
2024/01/05 05:06:20;;;;;;;12.23;5.90;;;;;;;;;;4923469;29;20028;-77
2024/01/05 05:08:45;;;;;;;12.25;5.70;;;;;;;;;;4908317;29;20504;-77
2024/01/05 05:11:11;;;;;;;11.60;5.78;;;;;;;;;;4923023;29;20055;-78
2024/01/05 05:13:37;;;;;;;13.77;5.30;;;;;;;;;;4938217;29;20090;-77
2024/01/05 05:16:03;;;;;;;10.57;5.10;;;;;;;;;;4940817;29;20114;-77
2024/01/05 05:18:28;;;;;;;9.23;4.82;;;;;;;;;;4936095;29;20502;-78
2024/01/05 05:20:54;;;;;;;9.52;4.50;;;;;;;;;;4932383;29;20483;-78
2024/01/05 05:23:19;;;;;;;14.07;5.60;;;;;;;;;;4941218;29;20043;-78
2024/01/05 05:25:45;;;;;;;10.52;5.43;;;;;;;;;;4941057;29;20395;-80
2024/01/05 05:28:11;;;;;;;10.32;4.63;;;;;;;;;;4940698;29;20027;-79
2024/01/05 05:30:36;;;;;;;13.70;6.60;;;;;;;;;;4941201;29;20510;-78
2024/01/05 05:33:04;;;;;;;11.43;5.45;;;;;;;;;;4957079;29;20046;-79
2024/01/05 05:35:29;;;;;;;12.82;5.85;;;;;;;;;;4925248;29;20475;-77
2024/01/05 05:37:55;;;;;;;17.52;7.28;;;;;;;;;;4941304;28;20035;-78
2024/01/05 05:40:22;;;;;;;10.82;4.50;;;;;;;;;;4925077;29;20042;-78
2024/01/05 05:42:47;;;;;;;10.68;4.65;;;;;;;;;;4923382;29;20046;-78
2024/01/05 05:45:13;;;;;;;11.55;5.00;;;;;;;;;;4911867;29;20024;-77
2024/01/05 05:47:38;;;;;;;10.10;5.13;;;;;;;;;;4923032;29;20035;-78
2024/01/05 05:50:06;;;;;;;12.52;5.03;;;;;;;;;;4907535;29;20388;-79
2024/01/05 05:52:34;;;;;;;10.68;5.00;;;;;;;;;;4907118;29;20032;-78
2024/01/05 05:55:00;;;;;;;10.10;4.70;;;;;;;;;;4892145;29;20040;-78
2024/01/05 05:57:26;;;;;;;12.98;4.70;;;;;;;;;;4907121;29;20142;-78
2024/01/05 05:59:51;;;;;;;11.18;4.68;;;;;;;;;;4912518;29;20122;-78
2024/01/05 06:02:17;;;;;;;8.73;4.15;;;;;;;;;;4915199;29;20455;-77
2024/01/05 06:04:43;;;;;;;12.73;4.93;;;;;;;;;;4905739;29;20032;-77
2024/01/05 06:07:08;;;;;;;11.35;4.00;;;;;;;;;;4906448;29;20054;-77
2024/01/05 06:09:34;;;;;;;13.52;4.78;;;;;;;;;;4906855;29;20086;-77
2024/01/05 06:12:00;;;;;;;15.27;4.15;;;;;;;;;;4906123;29;20060;-79
2024/01/05 06:14:26;;;;;;;10.20;4.40;;;;;;;;;;4906549;29;20466;-79
2024/01/05 06:16:52;;;;;;;11.95;4.75;;;;;;;;;;4906441;29;20038;-77
2024/01/05 06:19:17;;;;;;;15.05;5.57;;;;;;;;;;4914281;29;20389;-78
2024/01/05 06:21:43;;;;;;;14.77;4.25;;;;;;;;;;4940678;29;20046;-78
2024/01/05 06:24:09;;;;;;;12.50;5.03;;;;;;;;;;4926168;29;20513;-78
2024/01/05 06:26:35;;;;;;;10.45;3.83;;;;;;;;;;4942168;29;20035;-78
2024/01/05 06:29:02;;;;;;;8.85;4.43;;;;;;;;;;4927446;29;20482;-78
2024/01/05 06:31:28;;;;;;;8.43;3.90;;;;;;;;;;4943266;29;20035;-77
2024/01/05 06:33:53;;;;;;;10.15;3.97;;;;;;;;;;4943846;29;20062;-79
2024/01/05 06:36:19;;;;;;;9.23;3.97;;;;;;;;;;4940516;29;20028;-78
2024/01/05 06:38:45;;;;;;;9.60;3.53;;;;;;;;;;4925755;29;20041;-78
2024/01/05 06:41:11;;;;;;;19.33;7.05;;;;;;;;;;4927809;29;20107;-78
2024/01/05 06:43:37;;;;;;;15.38;5.18;;;;;;;;;;4926788;29;20035;-77
2024/01/05 06:46:05;;;;;;;20.15;4.80;;;;;;;;;;4943463;29;20036;-77
2024/01/05 06:48:31;;;;;;;9.00;3.50;;;;;;;;;;4929388;29;20035;-78
2024/01/05 06:50:57;;;;;;;11.45;3.90;;;;;;;;;;4915675;29;20050;-78
2024/01/05 06:53:23;;;;;;;11.95;4.25;;;;;;;;;;4947649;29;20487;-79
2024/01/05 06:55:49;;;;;;;8.90;3.67;;;;;;;;;;4929626;29;20039;-78
2024/01/05 06:58:15;;;;;;;13.30;5.13;;;;;;;;;;4943741;29;20110;-77
2024/01/05 07:00:40;;;;;;;12.35;5.13;;;;;;;;;;4922791;29;20113;-78
2024/01/05 07:03:06;;;;;;;9.18;3.80;;;;;;;;;;4917001;29;20403;-77
2024/01/05 07:05:32;;;;;;;11.93;4.43;;;;;;;;;;4903611;29;20537;-78
2024/01/05 07:07:58;;;;;;;8.60;3.80;;;;;;;;;;4918831;29;20130;-78
2024/01/05 07:10:29;;;;;;;9.57;3.88;;;;;;;;;;4919854;29;20140;-77
2024/01/05 07:12:55;;;;;;;10.13;4.15;;;;;;;;;;4915491;29;20042;-78
2024/01/05 07:15:21;;;;;;;10.25;3.40;;;;;;;;;;4906204;29;20043;-78
2024/01/05 07:17:49;;;;;;;10.88;3.72;;;;;;;;;;4923910;29;20058;-77
2024/01/05 07:20:15;;;;;;;11.02;4.20;;;;;;;;;;4933000;29;20039;-77
2024/01/05 07:22:41;;;;;;;8.32;3.47;;;;;;;;;;4910511;29;20042;-77
2024/01/05 07:25:09;;;;;;;12.95;3.72;;;;;;;;;;4912727;29;20035;-78
2024/01/05 07:27:35;;;;;;;;;;;;;;;;;;4906189;29;20039;-79
2024/01/05 07:30:06;;;;;;;13.50;4.10;;;;;;;;;;4937056;29;19911;-77
2024/01/05 07:32:52;;;;;;;9.70;3.90;;;;;;;;;;4911742;29;20058;-77
2024/01/05 07:35:18;;;;;;;12.70;3.55;;;;;;;;;;4889295;29;20058;-79
2024/01/05 07:37:46;;;;;;;12.40;3.47;;;;;;;;;;4937777;29;20031;-80
2024/01/05 07:40:21;;;;;;;15.45;3.50;;;;;;;;;;4911001;29;20212;-78
2024/01/05 07:42:46;;;;;;;11.75;3.35;;;;;;;;;;4942815;29;20042;-78
2024/01/05 07:45:12;;;;;;;7.50;2.88;;;;;;;;;;4925521;29;20043;-79
2024/01/05 07:47:47;;;;;;;7.82;2.95;;;;;;;;;;4927230;29;20394;-78
2024/01/05 07:50:17;;;;;;;7.80;2.83;;;;;;;;;;4941009;29;20057;-79
2024/01/05 07:52:44;;;;;;;11.10;3.60;;;;;;;;;;4922522;29;20047;-78
2024/01/05 07:55:10;;;;;;;6.53;3.25;;;;;;;;;;4922581;29;20035;-78
2024/01/05 07:57:35;;;;;;;13.10;3.88;;;;;;;;;;4905622;29;20036;-78
2024/01/05 08:00:02;;;;;;;10.10;3.72;;;;;;;;;;4939308;29;20119;-79
2024/01/05 08:02:53;;;;;;;16.08;3.78;;;;;;;;;;4958812;29;20091;-80
2024/01/05 08:05:19;;;;;;;13.57;3.78;;;;;;;;;;4935148;29;20031;-77
2024/01/05 08:07:45;;;;;;;5.90;2.83;;;;;;;;;;4922224;29;20050;-79
2024/01/05 08:10:11;;;;;;;8.27;3.42;;;;;;;;;;4942398;29;20102;-79
2024/01/05 08:12:37;;;;;;;6.85;3.50;;;;;;;;;;4941728;29;20034;-78
2024/01/05 08:15:03;;;;;;;10.00;3.20;;;;;;;;;;4913155;29;20040;-79
2024/01/05 08:17:31;;;;;;;19.23;8.40;;;;;;;;;;4910573;29;20035;-78
2024/01/05 08:19:59;;;;;;;11.30;4.10;;;;;;;;;;4915430;29;20074;-77
2024/01/05 08:22:25;;;;;;;11.02;3.22;;;;;;;;;;4923789;29;20054;-78
2024/01/05 08:24:51;;;;;;;11.13;3.80;;;;;;;;;;4940739;29;20039;-79
2024/01/05 08:27:17;;;;;;;10.27;3.17;;;;;;;;;;4958819;29;20038;-79
2024/01/05 08:29:43;;;;;;;9.63;3.45;;;;;;;;;;4925009;29;20058;-78
2024/01/05 08:32:11;;;;;;;7.32;2.95;;;;;;;;;;4938601;29;20059;-79
2024/01/05 08:34:37;;;;;;;12.30;3.00;;;;;;;;;;4921778;29;20032;-78
2024/01/05 08:37:03;;;;;;;9.88;2.97;;;;;;;;;;4938944;29;20043;-79
2024/01/05 08:39:29;;;;;;;11.88;3.72;;;;;;;;;;4943028;29;20032;-79
2024/01/05 08:41:59;;;;;;;12.52;3.47;;;;;;;;;;4943015;29;20126;-78
2024/01/05 08:44:27;;;;;;;7.80;2.53;;;;;;;;;;4941083;29;20034;-78
2024/01/05 08:46:53;;;;;;;11.02;3.28;;;;;;;;;;4893884;29;20028;-78
2024/01/05 08:49:19;;;;;;;8.10;3.00;;;;;;;;;;4948524;29;20024;-79
2024/01/05 08:51:45;;;;;;;14.13;5.95;;;;;;;;;;4937188;29;20194;-79
2024/01/05 08:54:11;;;;;;;10.02;4.25;;;;;;;;;;4960049;29;20027;-79
2024/01/05 08:56:38;;;;;;;10.25;2.80;;;;;;;;;;4943956;29;20135;-78
2024/01/05 08:59:04;;;;;;;9.63;2.80;;;;;;;;;;4941325;29;20471;-78
2024/01/05 09:01:32;;;;;;;8.45;3.00;;;;;;;;;;4929425;29;20031;-79
2024/01/05 09:03:58;;;;;;;9.18;2.80;;;;;;;;;;4927229;29;20379;-79
2024/01/05 09:06:24;;;;;;;8.90;2.78;;;;;;;;;;4943792;29;20035;-77
2024/01/05 09:08:50;;;;;;;12.60;2.45;;;;;;;;;;4928328;29;20038;-79
2024/01/05 09:11:15;;;;;;;12.07;2.30;;;;;;;;;;4942734;29;20031;-78
2024/01/05 09:13:41;;;;;;;11.60;1.75;;;;;;;;;;4942732;29;20039;-78
2024/01/05 09:16:07;;;;;;;12.45;2.47;;;;;;;;;;4926823;29;20038;-78
2024/01/05 09:18:36;;;;;;;14.55;2.10;;;;;;;;;;4926147;29;20095;-78
2024/01/05 09:21:02;;;;;;;10.10;1.80;;;;;;;;;;4940863;29;20403;-79
2024/01/05 09:23:28;;;;;;;5.93;1.60;;;;;;;;;;4940342;29;20497;-79
2024/01/05 09:25:54;;;;;;;13.98;2.50;;;;;;;;;;4941301;29;20035;-79
2024/01/05 09:28:20;;;;;;;12.27;3.90;;;;;;;;;;4908712;29;20095;-79
2024/01/05 09:30:45;;;;;;;9.07;2.15;;;;;;;;;;4941181;29;20127;-79
2024/01/05 09:33:12;;;;;;;8.32;1.80;;;;;;;;;;4944795;29;20031;-78
2024/01/05 09:35:39;;;;;;;9.90;2.28;;;;;;;;;;4963886;29;20065;-78
2024/01/05 09:38:25;;;;;;;11.85;3.65;;;;;;;;;;4934102;28;20398;-79
2024/01/05 09:41:14;;;;;;;5.97;1.52;;;;;;;;;;4921815;29;20046;-78
2024/01/05 09:44:00;;;;;;;6.68;2.30;;;;;;;;;;4935095;29;20115;-78
2024/01/05 09:46:46;;;;;;;6.70;1.25;;;;;;;;;;4921433;29;20039;-79
2024/01/05 09:49:34;;;;;;;5.50;1.45;;;;;;;;;;4928381;29;20491;-78
2024/01/05 09:52:21;;;;;;;7.20;2.13;;;;;;;;;;4932112;29;20140;-78
2024/01/05 09:55:07;;;;;;;7.53;1.60;;;;;;;;;;4934362;29;20130;-79
2024/01/05 09:57:54;;;;;;;6.20;1.60;;;;;;;;;;4949998;29;20043;-79
2024/01/05 10:00:43;;;;;;;10.85;1.42;;;;;;;;;;4949700;29;20516;-78
2024/01/05 10:03:28;;;;;;;5.32;1.60;;;;;;;;;;4961449;28;20073;-79
2024/01/05 10:06:17;;;;;;;7.20;2.13;;;;;;;;;;4929808;29;20031;-78
2024/01/05 10:09:05;;;;;;;10.27;2.15;;;;;;;;;;4915195;29;20039;-79
2024/01/05 10:11:51;;;;;;;6.20;1.77;;;;;;;;;;4927928;29;20121;-79
2024/01/05 10:14:36;;;;;;;6.57;1.95;;;;;;;;;;4914909;29;20039;-79
2024/01/05 10:17:22;;;;;;;14.15;2.17;;;;;;;;;;4939147;29;20095;-78
2024/01/05 10:20:15;;;;;;;8.52;1.08;;;;;;;;;;4902999;29;20044;-78
2024/01/05 10:23:04;;;;;;;6.95;1.70;;;;;;;;;;4901227;29;20063;-79
2024/01/05 10:25:54;;;;;;;7.35;2.00;;;;;;;;;;4900744;29;20061;-78
2024/01/05 10:28:40;;;;;;;6.20;1.50;;;;;;;;;;4929364;29;20122;-79
2024/01/05 10:31:25;;;;;;;9.45;2.08;;;;;;;;;;4947894;29;20406;-79
2024/01/05 10:34:12;;;;;;;9.02;1.70;;;;;;;;;;4944245;29;20399;-78
2024/01/05 10:37:04;;;;;;;7.38;1.73;;;;;;;;;;4946205;29;20041;-79
2024/01/05 10:39:56;;;;;;;8.70;2.22;;;;;;;;;;4946081;29;20588;-79
2024/01/05 10:42:42;;;;;;;3.47;1.48;;;;;;;;;;4932568;29;20118;-78
2024/01/05 10:45:29;;;;;;;8.65;1.65;;;;;;;;;;4930294;29;20046;-78
2024/01/05 10:48:16;;;;;;;6.20;1.75;;;;;;;;;;4959646;28;20070;-79
2024/01/05 10:51:02;;;;;;;4.95;1.27;;;;;;;;;;4945529;29;20086;-78
2024/01/05 10:53:49;;;;;;;4.15;1.50;;;;;;;;;;4945833;29;20039;-78
2024/01/05 10:56:37;;;;;;;8.60;2.28;;;;;;;;;;4931479;29;20034;-78
2024/01/05 10:59:24;;;;;;;8.82;1.80;;;;;;;;;;4941709;29;20042;-78
2024/01/05 11:02:18;;;;;;;6.28;1.40;;;;;;;;;;4947376;29;20039;-78
2024/01/05 11:05:08;;;;;;;5.18;1.73;;;;;;;;;;4947460;29;20050;-79
2024/01/05 11:07:54;;;;;;;6.40;1.70;;;;;;;;;;4934531;29;20035;-79
2024/01/05 11:10:40;;;;;;;9.63;1.50;;;;;;;;;;4932760;29;20047;-79
2024/01/05 11:13:38;;;;;;;7.85;1.90;;;;;;;;;;4932865;29;20169;-79
2024/01/05 11:16:33;;;;;;;7.93;2.00;;;;;;;;;;4933324;29;20070;-79
2024/01/05 11:19:33;;;;;;;8.93;1.88;;;;;;;;;;4941502;29;20096;-79
2024/01/05 11:22:24;;;;;;;3.75;1.48;;;;;;;;;;4932695;29;20038;-79
2024/01/05 11:25:10;;;;;;;7.93;1.80;;;;;;;;;;4931359;29;20066;-79
2024/01/05 11:27:55;;;;;;;7.63;2.50;;;;;;;;;;4944675;29;20034;-79
2024/01/05 11:30:41;;;;;;;10.45;1.90;;;;;;;;;;4945653;29;20047;-78
2024/01/05 11:33:43;;;;;;;4.88;1.70;;;;;;;;;;4934249;29;20501;-78
2024/01/05 11:36:48;;;;;;;8.38;2.50;;;;;;;;;;4934392;29;20050;-79
2024/01/05 11:39:48;;;;;;;12.07;2.58;;;;;;;;;;4945676;29;20035;-79
2024/01/05 11:42:36;;;;;;;9.70;3.40;;;;;;;;;;4940038;29;20565;-79
2024/01/05 11:45:41;;;;;;;10.82;3.55;;;;;;;;;;4937180;29;20043;-80
2024/01/05 11:48:37;;;;;;;17.45;4.38;;;;;;;;;;4936155;29;20035;-79
2024/01/05 11:51:26;;;;;;;12.18;4.03;;;;;;;;;;4947087;29;20031;-81
2024/01/05 11:54:11;;;;;;;8.52;2.63;;;;;;;;;;4931556;29;20035;-79
2024/01/05 11:56:58;;;;;;;8.20;2.30;;;;;;;;;;4922127;29;20039;-79
2024/01/05 11:59:44;;;;;;;16.83;4.80;;;;;;;;;;4933442;29;20031;-80
2024/01/05 12:02:30;;;;;;;10.27;3.28;;;;;;;;;;4923707;29;20027;-79
2024/01/05 12:05:16;;;;;;;18.00;5.10;;;;;;;;;;4929756;29;20131;-79
2024/01/05 12:08:02;;;;;;;15.63;4.60;;;;;;;;;;4931892;29;20028;-79
2024/01/05 12:10:52;;;;;;;9.75;2.10;;;;;;;;;;4933249;29;20060;-79
2024/01/05 12:13:41;;;;;;;5.72;1.42;;;;;;;;;;4935964;29;20027;-80
2024/01/05 12:16:28;;;;;;;6.32;2.20;;;;;;;;;;4934241;29;20099;-79
2024/01/05 12:19:21;;;;;;;5.05;1.83;;;;;;;;;;4950260;29;20096;-80
2024/01/05 12:22:07;;;;;;;5.78;1.70;;;;;;;;;;4952538;29;20043;-80
2024/01/05 12:24:54;;;;;;;8.35;2.10;;;;;;;;;;4952545;29;20187;-78
2024/01/05 12:27:40;;;;;;;9.38;2.13;;;;;;;;;;4951816;29;20035;-78
2024/01/05 12:30:26;;;;;;;4.97;1.35;;;;;;;;;;4951376;29;20039;-79
2024/01/05 12:33:12;;;;;;;4.82;1.80;;;;;;;;;;4925729;29;20028;-79
2024/01/05 12:35:57;;;;;;;9.68;1.58;;;;;;;;;;4939554;29;20118;-78
2024/01/05 12:38:43;;;;;;;11.75;2.72;;;;;;;;;;4939676;29;20122;-79
2024/01/05 12:41:29;;;;;;;8.02;2.25;;;;;;;;;;4953285;29;20082;-79
2024/01/05 12:44:15;;;;;;;7.28;1.95;;;;;;;;;;4944109;29;20040;-79
2024/01/05 12:47:01;;;;;;;9.05;2.33;;;;;;;;;;4958137;29;20050;-79
2024/01/05 12:49:48;;;;;;;8.05;2.00;;;;;;;;;;4973488;29;20090;-79
2024/01/05 12:52:35;;;;;;;8.15;1.67;;;;;;;;;;4960975;29;20035;-80
2024/01/05 12:55:31;;;;;;;9.88;1.60;;;;;;;;;;4928643;29;20040;-79
2024/01/05 12:58:20;;;;;;;10.40;2.60;;;;;;;;;;4929618;29;20045;-78
2024/01/05 13:01:07;;;;;;;15.68;5.00;;;;;;;;;;4932275;29;20039;-79
2024/01/05 13:03:56;;;;;;;11.18;3.40;;;;;;;;;;4960261;29;20059;-80
2024/01/05 13:06:43;;;;;;;11.10;4.10;;;;;;;;;;4948266;29;20454;-79
2024/01/05 13:09:32;;;;;;;12.82;4.95;;;;;;;;;;4961329;29;20157;-79
2024/01/05 13:12:18;;;;;;;13.43;3.40;;;;;;;;;;4935072;29;20035;-78
2024/01/05 13:15:04;;;;;;;16.63;3.40;;;;;;;;;;4960611;29;20088;-79
2024/01/05 13:17:51;;;;;;;23.35;6.88;;;;;;;;;;4945741;29;20067;-79
2024/01/05 13:20:37;;;;;;;14.20;4.82;;;;;;;;;;4931856;29;20115;-78
2024/01/05 13:23:23;;;;;;;7.53;2.40;;;;;;;;;;4951072;29;20039;-79
2024/01/05 13:26:09;;;;;;;7.80;2.50;;;;;;;;;;4912258;29;20510;-78
2024/01/05 13:28:55;;;;;;;8.13;2.17;;;;;;;;;;4918724;29;20057;-79
2024/01/05 13:31:43;;;;;;;5.68;2.40;;;;;;;;;;4920577;29;20051;-79
2024/01/05 13:38:06;;;;;;;11.82;3.63;;;;;;;;;;4911499;29;20063;-79
2024/01/05 13:41:17;;;;;;;8.00;3.25;;;;;;;;;;4912868;29;20036;-79
2024/01/05 13:44:06;;;;;;;10.35;3.28;;;;;;;;;;4898698;29;20051;-81
2024/01/05 13:46:56;;;;;;;9.00;2.95;;;;;;;;;;4915613;29;20085;-79
2024/01/05 13:49:53;;;;;;;7.90;3.08;;;;;;;;;;4924120;29;20050;-79
2024/01/05 13:52:39;;;;;;;9.60;3.15;;;;;;;;;;4914246;29;20043;-80
2024/01/05 13:55:24;;;;;;;10.60;3.25;;;;;;;;;;4909589;29;20047;-79
2024/01/05 13:58:11;;;;;;;12.02;3.35;;;;;;;;;;4901967;29;20039;-79
2024/01/05 14:01:10;;;;;;;12.00;2.63;;;;;;;;;;4908665;29;20060;-79
2024/01/05 14:03:56;;;;;;;;;;;;;;;;;;4907225;29;20048;-78
2024/01/05 14:06:41;;;;;;;9.20;2.67;;;;;;;;;;4916526;29;20031;-78
2024/01/05 14:09:27;;;;;;;8.10;3.42;;;;;;;;;;4913269;29;20040;-79
2024/01/05 14:12:14;;;;;;;15.23;3.33;;;;;;;;;;4900913;29;20036;-78
2024/01/05 14:15:03;;;;;;;11.13;4.38;;;;;;;;;;4943046;29;20039;-78
2024/01/05 14:17:52;;;;;;;11.23;4.18;;;;;;;;;;4947607;29;20047;-79
2024/01/05 14:24:59;;;;;;;;;;;;;;;;;;;;;
2024/01/05 14:27:49;;;;;;;16.58;4.05;;;;;;;;;;4942043;29;20051;-79
2024/01/05 14:30:35;;;;;;;14.80;5.55;;;;;;;;;;4926413;29;20110;-78
2024/01/05 14:33:21;;;;;;;18.23;4.63;;;;;;;;;;4906734;29;20486;-78
2024/01/05 14:36:07;;;;;;;14.25;4.15;;;;;;;;;;4928232;29;20048;-78
2024/01/05 14:38:53;;;;;;;16.38;5.68;;;;;;;;;;4937131;29;20064;-78
2024/01/05 14:45:38;;;;;;;9.50;3.15;;;;;;;;;;4920001;29;20598;-78
2024/01/05 14:48:24;;;;;;;;;;;;;;;;;;4918585;29;20082;-77
2024/01/05 14:51:14;;;;;;;10.60;3.13;;;;;;;;;;4904566;29;19911;-79
2024/01/05 14:54:00;;;;;;;6.38;2.50;;;;;;;;;;4918703;29;20043;-79
2024/01/05 14:56:45;;;;;;;10.82;2.22;;;;;;;;;;4915712;29;20524;-79
2024/01/05 14:59:32;;;;;;;10.82;2.80;;;;;;;;;;4924375;29;20071;-79
2024/01/05 15:02:17;;;;;;;10.00;2.70;;;;;;;;;;4931909;29;20087;-79
2024/01/05 15:05:04;;;;;;;13.73;3.20;;;;;;;;;;4937671;29;20071;-78
2024/01/05 15:07:53;;;;;;;8.00;1.90;;;;;;;;;;4934291;29;20040;-78
2024/01/05 15:10:38;;;;;;;16.63;2.40;;;;;;;;;;4929570;29;20032;-78
2024/01/05 15:13:25;;;;;;;9.15;2.55;;;;;;;;;;4931881;29;20031;-79
2024/01/05 15:16:10;;;;;;;5.43;2.03;;;;;;;;;;4927974;29;20080;-78
2024/01/05 15:18:56;;;;;;;5.10;1.55;;;;;;;;;;4931279;29;20126;-80
2024/01/05 15:21:49;;;;;;;7.78;2.17;;;;;;;;;;4933298;29;20075;-79
2024/01/05 15:24:36;;;;;;;5.75;1.80;;;;;;;;;;4928880;29;20118;-79
2024/01/05 15:27:22;;;;;;;8.80;2.47;;;;;;;;;;4944490;29;20517;-78
2024/01/05 15:30:07;;;;;;;8.98;1.95;;;;;;;;;;4946063;29;20070;-78